Terminal Aerodrome Forecast
Issued by NWS Upton, NY

Home | Current Version | Previous Version | Text Only | Print | Product List | Glossary On
Versions: 1 2 3 4 5 6 7 8 9 10 11 12 13 14 15 16 17 18 19 20 21 22 23 24
000
FTUS41 KOKX 281700
TAFBDR
TAF
KBDR 281730Z 2818/2918 22012KT P6SM SCT035 BKN080
     FM282200 26010KT P6SM SCT100
     FM290800 30007KT P6SM SCT100
     FM291600 25008KT P6SM SCT080=

USA.gov is the U.S. government's official web portal to all federal, state and local government web resources and services.